sensor_id;sensor_type;location;lat;lon;timestamp;temperature;humidity
11005;DHT22;5555;59.622;16.556;2023-04-06T00:00:49;0.00;99.90
11005;DHT22;5555;59.622;16.556;2023-04-06T00:03:15;0.00;99.90
11005;DHT22;5555;59.622;16.556;2023-04-06T00:05:41;0.10;99.90
11005;DHT22;5555;59.622;16.556;2023-04-06T00:08:07;0.10;99.90
11005;DHT22;5555;59.622;16.556;2023-04-06T00:10:33;0.00;99.90
11005;DHT22;5555;59.622;16.556;2023-04-06T00:12:59;0.10;99.90
11005;DHT22;5555;59.622;16.556;2023-04-06T00:15:26;0.10;99.90
11005;DHT22;5555;59.622;16.556;2023-04-06T00:17:52;0.10;99.90
11005;DHT22;5555;59.622;16.556;2023-04-06T00:20:17;0.10;99.90
11005;DHT22;5555;59.622;16.556;2023-04-06T00:22:44;0.10;99.90
11005;DHT22;5555;59.622;16.556;2023-04-06T00:25:10;0.20;99.90
11005;DHT22;5555;59.622;16.556;2023-04-06T00:27:36;0.10;99.90
11005;DHT22;5555;59.622;16.556;2023-04-06T00:30:04;0.20;99.90
11005;DHT22;5555;59.622;16.556;2023-04-06T00:32:30;0.20;99.90
11005;DHT22;5555;59.622;16.556;2023-04-06T00:34:56;0.20;99.90
11005;DHT22;5555;59.622;16.556;2023-04-06T00:37:22;0.20;99.90
11005;DHT22;5555;59.622;16.556;2023-04-06T00:39:48;0.20;99.90
11005;DHT22;5555;59.622;16.556;2023-04-06T00:42:14;0.20;99.90
11005;DHT22;5555;59.622;16.556;2023-04-06T00:44:43;0.20;99.90
11005;DHT22;5555;59.622;16.556;2023-04-06T00:47:08;0.20;99.90
11005;DHT22;5555;59.622;16.556;2023-04-06T00:49:34;0.20;99.90
11005;DHT22;5555;59.622;16.556;2023-04-06T00:52:00;0.20;99.90
11005;DHT22;5555;59.622;16.556;2023-04-06T00:54:28;0.20;99.90
11005;DHT22;5555;59.622;16.556;2023-04-06T00:56:53;0.20;99.90
11005;DHT22;5555;59.622;16.556;2023-04-06T00:59:20;0.10;99.90
11005;DHT22;5555;59.622;16.556;2023-04-06T01:01:46;0.20;99.90
11005;DHT22;5555;59.622;16.556;2023-04-06T01:04:11;0.20;99.90
11005;DHT22;5555;59.622;16.556;2023-04-06T01:06:37;0.20;99.90
11005;DHT22;5555;59.622;16.556;2023-04-06T01:09:02;0.10;99.90
11005;DHT22;5555;59.622;16.556;2023-04-06T01:11:28;0.10;99.90
11005;DHT22;5555;59.622;16.556;2023-04-06T01:13:54;0.20;99.90
11005;DHT22;5555;59.622;16.556;2023-04-06T01:16:20;0.10;99.90
11005;DHT22;5555;59.622;16.556;2023-04-06T01:18:46;0.10;99.90
11005;DHT22;5555;59.622;16.556;2023-04-06T01:21:11;0.10;99.90
11005;DHT22;5555;59.622;16.556;2023-04-06T01:23:45;0.10;99.90
11005;DHT22;5555;59.622;16.556;2023-04-06T01:26:14;0.10;99.90
11005;DHT22;5555;59.622;16.556;2023-04-06T01:28:39;0.10;99.90
11005;DHT22;5555;59.622;16.556;2023-04-06T01:31:09;0.10;99.90
11005;DHT22;5555;59.622;16.556;2023-04-06T01:33:35;0.10;99.90
11005;DHT22;5555;59.622;16.556;2023-04-06T01:36:01;0.10;99.90
11005;DHT22;5555;59.622;16.556;2023-04-06T01:38:27;0.20;99.90
11005;DHT22;5555;59.622;16.556;2023-04-06T01:40:55;0.10;99.90
11005;DHT22;5555;59.622;16.556;2023-04-06T01:43:21;0.10;99.90
11005;DHT22;5555;59.622;16.556;2023-04-06T01:45:47;0.10;99.90
11005;DHT22;5555;59.622;16.556;2023-04-06T01:48:13;0.10;99.90
11005;DHT22;5555;59.622;16.556;2023-04-06T01:50:38;0.10;99.90
11005;DHT22;5555;59.622;16.556;2023-04-06T01:53:04;0.10;99.90
11005;DHT22;5555;59.622;16.556;2023-04-06T01:55:29;0.10;99.90
11005;DHT22;5555;59.622;16.556;2023-04-06T01:57:55;0.10;99.90
11005;DHT22;5555;59.622;16.556;2023-04-06T02:00:21;0.20;99.90
11005;DHT22;5555;59.622;16.556;2023-04-06T02:02:46;0.10;99.90
11005;DHT22;5555;59.622;16.556;2023-04-06T02:05:12;0.10;99.90
11005;DHT22;5555;59.622;16.556;2023-04-06T02:07:38;0.10;99.90
11005;DHT22;5555;59.622;16.556;2023-04-06T02:10:04;0.10;99.90
11005;DHT22;5555;59.622;16.556;2023-04-06T02:12:29;0.10;99.90
11005;DHT22;5555;59.622;16.556;2023-04-06T02:14:55;0.10;99.90
11005;DHT22;5555;59.622;16.556;2023-04-06T02:17:20;0.10;99.90
11005;DHT22;5555;59.622;16.556;2023-04-06T02:19:46;0.20;99.90
11005;DHT22;5555;59.622;16.556;2023-04-06T02:22:12;0.10;99.90
11005;DHT22;5555;59.622;16.556;2023-04-06T02:24:37;0.10;99.90
11005;DHT22;5555;59.622;16.556;2023-04-06T02:27:03;0.10;99.90
11005;DHT22;5555;59.622;16.556;2023-04-06T02:29:29;0.10;99.90
11005;DHT22;5555;59.622;16.556;2023-04-06T02:31:54;0.10;99.90
11005;DHT22;5555;59.622;16.556;2023-04-06T02:34:20;0.10;99.90
11005;DHT22;5555;59.622;16.556;2023-04-06T02:36:46;0.10;99.90
11005;DHT22;5555;59.622;16.556;2023-04-06T02:39:12;0.10;99.90
11005;DHT22;5555;59.622;16.556;2023-04-06T02:41:39;0.10;99.90
11005;DHT22;5555;59.622;16.556;2023-04-06T02:44:07;0.10;99.90
11005;DHT22;5555;59.622;16.556;2023-04-06T02:46:34;0.10;99.90
11005;DHT22;5555;59.622;16.556;2023-04-06T02:48:59;0.10;99.90
11005;DHT22;5555;59.622;16.556;2023-04-06T02:51:26;0.10;99.90
11005;DHT22;5555;59.622;16.556;2023-04-06T02:53:52;0.10;99.90
11005;DHT22;5555;59.622;16.556;2023-04-06T02:56:17;0.10;99.90
11005;DHT22;5555;59.622;16.556;2023-04-06T02:58:43;0.10;99.90
11005;DHT22;5555;59.622;16.556;2023-04-06T03:01:09;0.10;99.90
11005;DHT22;5555;59.622;16.556;2023-04-06T03:03:34;0.10;99.90
11005;DHT22;5555;59.622;16.556;2023-04-06T03:06:00;0.10;99.90
11005;DHT22;5555;59.622;16.556;2023-04-06T03:08:26;0.00;99.90
11005;DHT22;5555;59.622;16.556;2023-04-06T03:10:51;0.00;99.90
11005;DHT22;5555;59.622;16.556;2023-04-06T03:13:17;0.00;99.90
11005;DHT22;5555;59.622;16.556;2023-04-06T03:15:42;0.00;99.90
11005;DHT22;5555;59.622;16.556;2023-04-06T03:18:08;-0.10;99.90
11005;DHT22;5555;59.622;16.556;2023-04-06T03:20:34;-0.10;99.90
11005;DHT22;5555;59.622;16.556;2023-04-06T03:22:59;0.00;99.90
11005;DHT22;5555;59.622;16.556;2023-04-06T03:25:25;-0.10;99.90
11005;DHT22;5555;59.622;16.556;2023-04-06T03:27:51;-0.10;99.90
11005;DHT22;5555;59.622;16.556;2023-04-06T03:30:16;-0.10;99.90
11005;DHT22;5555;59.622;16.556;2023-04-06T03:32:43;-0.10;99.90
11005;DHT22;5555;59.622;16.556;2023-04-06T03:35:09;-0.10;99.90
11005;DHT22;5555;59.622;16.556;2023-04-06T03:37:35;-0.10;99.90
11005;DHT22;5555;59.622;16.556;2023-04-06T03:40:01;-0.10;99.90
11005;DHT22;5555;59.622;16.556;2023-04-06T03:42:28;-0.10;99.90
11005;DHT22;5555;59.622;16.556;2023-04-06T03:44:53;-0.10;99.90
11005;DHT22;5555;59.622;16.556;2023-04-06T03:47:19;-0.10;99.90
11005;DHT22;5555;59.622;16.556;2023-04-06T03:49:45;0.00;99.90
11005;DHT22;5555;59.622;16.556;2023-04-06T03:52:11;0.00;99.90
11005;DHT22;5555;59.622;16.556;2023-04-06T03:54:36;0.00;99.90
11005;DHT22;5555;59.622;16.556;2023-04-06T03:57:03;0.00;99.90
11005;DHT22;5555;59.622;16.556;2023-04-06T03:59:29;0.00;99.90
11005;DHT22;5555;59.622;16.556;2023-04-06T04:01:55;0.00;99.90
11005;DHT22;5555;59.622;16.556;2023-04-06T04:04:21;0.10;99.90
11005;DHT22;5555;59.622;16.556;2023-04-06T04:06:46;0.00;99.90
11005;DHT22;5555;59.622;16.556;2023-04-06T04:09:12;0.10;99.90
11005;DHT22;5555;59.622;16.556;2023-04-06T04:11:38;0.10;99.90
11005;DHT22;5555;59.622;16.556;2023-04-06T04:14:03;0.10;99.90
11005;DHT22;5555;59.622;16.556;2023-04-06T04:16:29;0.10;99.90
11005;DHT22;5555;59.622;16.556;2023-04-06T04:18:55;0.20;99.90
11005;DHT22;5555;59.622;16.556;2023-04-06T04:21:20;0.10;99.90
11005;DHT22;5555;59.622;16.556;2023-04-06T04:23:46;0.20;99.90
11005;DHT22;5555;59.622;16.556;2023-04-06T04:26:12;0.20;99.90
11005;DHT22;5555;59.622;16.556;2023-04-06T04:28:37;0.20;99.90
11005;DHT22;5555;59.622;16.556;2023-04-06T04:31:03;0.10;99.90
11005;DHT22;5555;59.622;16.556;2023-04-06T04:33:29;0.20;99.90
11005;DHT22;5555;59.622;16.556;2023-04-06T04:35:54;0.20;99.90
11005;DHT22;5555;59.622;16.556;2023-04-06T04:38:20;0.30;99.90
11005;DHT22;5555;59.622;16.556;2023-04-06T04:40:46;0.20;99.90
11005;DHT22;5555;59.622;16.556;2023-04-06T04:43:11;0.30;99.90
11005;DHT22;5555;59.622;16.556;2023-04-06T04:45:37;0.30;99.90
11005;DHT22;5555;59.622;16.556;2023-04-06T04:48:03;0.30;99.90
11005;DHT22;5555;59.622;16.556;2023-04-06T04:50:30;0.30;99.90
11005;DHT22;5555;59.622;16.556;2023-04-06T04:52:55;0.30;99.90
11005;DHT22;5555;59.622;16.556;2023-04-06T04:55:21;0.30;99.90
11005;DHT22;5555;59.622;16.556;2023-04-06T04:57:47;0.30;99.90
11005;DHT22;5555;59.622;16.556;2023-04-06T05:00:13;0.30;99.90
11005;DHT22;5555;59.622;16.556;2023-04-06T05:02:38;0.40;99.90
11005;DHT22;5555;59.622;16.556;2023-04-06T05:05:05;0.40;99.90
11005;DHT22;5555;59.622;16.556;2023-04-06T05:07:31;0.40;99.90
11005;DHT22;5555;59.622;16.556;2023-04-06T05:09:56;0.50;99.90
11005;DHT22;5555;59.622;16.556;2023-04-06T05:12:22;0.50;99.90
11005;DHT22;5555;59.622;16.556;2023-04-06T05:14:47;0.60;99.90
11005;DHT22;5555;59.622;16.556;2023-04-06T05:17:13;0.70;99.90
11005;DHT22;5555;59.622;16.556;2023-04-06T05:19:39;0.70;99.90
11005;DHT22;5555;59.622;16.556;2023-04-06T05:22:04;0.80;99.90
11005;DHT22;5555;59.622;16.556;2023-04-06T05:24:30;0.80;99.90
11005;DHT22;5555;59.622;16.556;2023-04-06T05:26:56;0.80;99.90
11005;DHT22;5555;59.622;16.556;2023-04-06T05:29:21;0.90;99.90
11005;DHT22;5555;59.622;16.556;2023-04-06T05:31:47;0.90;99.90
11005;DHT22;5555;59.622;16.556;2023-04-06T05:34:13;1.00;99.90
11005;DHT22;5555;59.622;16.556;2023-04-06T05:36:39;1.10;99.90
11005;DHT22;5555;59.622;16.556;2023-04-06T05:39:05;1.10;99.90
11005;DHT22;5555;59.622;16.556;2023-04-06T05:41:31;1.10;99.90
11005;DHT22;5555;59.622;16.556;2023-04-06T05:43:57;1.10;99.90
11005;DHT22;5555;59.622;16.556;2023-04-06T05:46:23;1.30;99.90
11005;DHT22;5555;59.622;16.556;2023-04-06T05:48:48;1.30;99.90
11005;DHT22;5555;59.622;16.556;2023-04-06T05:51:14;1.20;99.90
11005;DHT22;5555;59.622;16.556;2023-04-06T05:53:39;1.30;99.90
11005;DHT22;5555;59.622;16.556;2023-04-06T05:56:05;1.30;99.90
11005;DHT22;5555;59.622;16.556;2023-04-06T05:58:32;1.30;99.90
11005;DHT22;5555;59.622;16.556;2023-04-06T06:00:58;1.30;99.90
11005;DHT22;5555;59.622;16.556;2023-04-06T06:03:24;1.30;99.90
11005;DHT22;5555;59.622;16.556;2023-04-06T06:05:50;1.50;99.90
11005;DHT22;5555;59.622;16.556;2023-04-06T06:08:15;1.40;99.90
11005;DHT22;5555;59.622;16.556;2023-04-06T06:10:41;1.50;99.90
11005;DHT22;5555;59.622;16.556;2023-04-06T06:13:06;1.50;99.90
11005;DHT22;5555;59.622;16.556;2023-04-06T06:15:32;1.40;99.90
11005;DHT22;5555;59.622;16.556;2023-04-06T06:17:58;1.50;99.90
11005;DHT22;5555;59.622;16.556;2023-04-06T06:20:23;1.70;99.90
11005;DHT22;5555;59.622;16.556;2023-04-06T06:22:49;1.90;99.90
11005;DHT22;5555;59.622;16.556;2023-04-06T06:25:15;2.10;99.90
11005;DHT22;5555;59.622;16.556;2023-04-06T06:27:41;2.10;99.90
11005;DHT22;5555;59.622;16.556;2023-04-06T06:30:07;2.20;99.90
11005;DHT22;5555;59.622;16.556;2023-04-06T06:32:33;2.10;99.90
11005;DHT22;5555;59.622;16.556;2023-04-06T06:34:59;2.00;99.90
11005;DHT22;5555;59.622;16.556;2023-04-06T06:37:24;2.10;99.90
11005;DHT22;5555;59.622;16.556;2023-04-06T06:39:50;2.20;99.90
11005;DHT22;5555;59.622;16.556;2023-04-06T06:42:15;2.40;99.90
11005;DHT22;5555;59.622;16.556;2023-04-06T06:44:41;2.40;99.90
11005;DHT22;5555;59.622;16.556;2023-04-06T06:47:07;2.30;99.90
11005;DHT22;5555;59.622;16.556;2023-04-06T06:49:32;2.20;99.90
11005;DHT22;5555;59.622;16.556;2023-04-06T06:51:58;2.00;99.90
11005;DHT22;5555;59.622;16.556;2023-04-06T06:54:23;2.00;99.90
11005;DHT22;5555;59.622;16.556;2023-04-06T06:56:49;2.10;99.90
11005;DHT22;5555;59.622;16.556;2023-04-06T06:59:15;2.10;99.90
11005;DHT22;5555;59.622;16.556;2023-04-06T07:01:41;2.00;99.90
11005;DHT22;5555;59.622;16.556;2023-04-06T07:04:07;1.90;99.90
11005;DHT22;5555;59.622;16.556;2023-04-06T07:06:35;2.10;99.90
11005;DHT22;5555;59.622;16.556;2023-04-06T07:09:01;2.30;99.90
11005;DHT22;5555;59.622;16.556;2023-04-06T07:11:28;2.40;99.90
11005;DHT22;5555;59.622;16.556;2023-04-06T07:13:54;2.50;99.90
11005;DHT22;5555;59.622;16.556;2023-04-06T07:16:20;2.70;99.90
11005;DHT22;5555;59.622;16.556;2023-04-06T07:18:45;2.90;99.90
11005;DHT22;5555;59.622;16.556;2023-04-06T07:21:11;2.90;99.90
11005;DHT22;5555;59.622;16.556;2023-04-06T07:23:37;3.10;99.90
11005;DHT22;5555;59.622;16.556;2023-04-06T07:26:03;3.40;99.90
11005;DHT22;5555;59.622;16.556;2023-04-06T07:28:28;3.50;99.90
11005;DHT22;5555;59.622;16.556;2023-04-06T07:30:54;3.40;99.90
11005;DHT22;5555;59.622;16.556;2023-04-06T07:33:20;3.40;99.90
11005;DHT22;5555;59.622;16.556;2023-04-06T07:35:46;3.50;99.90
11005;DHT22;5555;59.622;16.556;2023-04-06T07:38:12;3.30;99.90
11005;DHT22;5555;59.622;16.556;2023-04-06T07:40:37;3.50;99.90
11005;DHT22;5555;59.622;16.556;2023-04-06T07:43:03;3.70;99.90
11005;DHT22;5555;59.622;16.556;2023-04-06T07:45:29;3.80;99.90
11005;DHT22;5555;59.622;16.556;2023-04-06T07:47:54;4.00;99.90
11005;DHT22;5555;59.622;16.556;2023-04-06T07:50:20;3.70;99.90
11005;DHT22;5555;59.622;16.556;2023-04-06T07:52:46;3.70;99.90
11005;DHT22;5555;59.622;16.556;2023-04-06T07:55:12;3.80;99.90
11005;DHT22;5555;59.622;16.556;2023-04-06T07:57:37;3.70;99.90
11005;DHT22;5555;59.622;16.556;2023-04-06T08:00:03;3.60;99.90
11005;DHT22;5555;59.622;16.556;2023-04-06T08:02:31;3.80;99.90
11005;DHT22;5555;59.622;16.556;2023-04-06T08:04:57;3.80;99.90
11005;DHT22;5555;59.622;16.556;2023-04-06T08:07:22;3.70;99.90
11005;DHT22;5555;59.622;16.556;2023-04-06T08:09:48;3.80;99.90
11005;DHT22;5555;59.622;16.556;2023-04-06T08:12:14;4.20;99.90
11005;DHT22;5555;59.622;16.556;2023-04-06T08:14:40;3.90;99.90
11005;DHT22;5555;59.622;16.556;2023-04-06T08:17:05;3.80;99.90
11005;DHT22;5555;59.622;16.556;2023-04-06T08:19:31;4.00;99.90
11005;DHT22;5555;59.622;16.556;2023-04-06T08:21:56;4.00;99.90
11005;DHT22;5555;59.622;16.556;2023-04-06T08:24:22;3.70;99.90
11005;DHT22;5555;59.622;16.556;2023-04-06T08:26:48;3.60;99.90
11005;DHT22;5555;59.622;16.556;2023-04-06T08:29:13;3.50;99.90
11005;DHT22;5555;59.622;16.556;2023-04-06T08:31:39;3.60;99.90
11005;DHT22;5555;59.622;16.556;2023-04-06T08:34:05;4.10;99.90
11005;DHT22;5555;59.622;16.556;2023-04-06T08:36:31;4.00;99.90
11005;DHT22;5555;59.622;16.556;2023-04-06T08:38:57;3.80;99.90
11005;DHT22;5555;59.622;16.556;2023-04-06T08:41:22;3.70;99.90
11005;DHT22;5555;59.622;16.556;2023-04-06T08:43:59;4.10;99.90
11005;DHT22;5555;59.622;16.556;2023-04-06T08:46:25;4.50;99.90
11005;DHT22;5555;59.622;16.556;2023-04-06T08:48:59;4.30;99.90
11005;DHT22;5555;59.622;16.556;2023-04-06T08:51:26;4.30;99.90
11005;DHT22;5555;59.622;16.556;2023-04-06T08:53:53;4.60;99.90
11005;DHT22;5555;59.622;16.556;2023-04-06T08:56:20;4.80;99.90
11005;DHT22;5555;59.622;16.556;2023-04-06T08:58:47;4.90;99.90
11005;DHT22;5555;59.622;16.556;2023-04-06T09:01:13;5.10;99.90
11005;DHT22;5555;59.622;16.556;2023-04-06T09:03:40;4.70;99.90
11005;DHT22;5555;59.622;16.556;2023-04-06T09:06:08;4.70;99.90
11005;DHT22;5555;59.622;16.556;2023-04-06T09:08:34;5.00;99.90
11005;DHT22;5555;59.622;16.556;2023-04-06T09:11:04;5.40;99.90
11005;DHT22;5555;59.622;16.556;2023-04-06T09:13:30;5.70;99.90
11005;DHT22;5555;59.622;16.556;2023-04-06T09:16:03;5.50;99.90
11005;DHT22;5555;59.622;16.556;2023-04-06T09:18:33;5.50;99.90
11005;DHT22;5555;59.622;16.556;2023-04-06T09:21:00;5.40;99.90
11005;DHT22;5555;59.622;16.556;2023-04-06T09:23:26;5.60;99.90
11005;DHT22;5555;59.622;16.556;2023-04-06T09:26:04;5.30;99.90
11005;DHT22;5555;59.622;16.556;2023-04-06T09:28:47;5.80;99.90
11005;DHT22;5555;59.622;16.556;2023-04-06T09:31:15;6.80;99.90
11005;DHT22;5555;59.622;16.556;2023-04-06T09:33:42;6.70;99.90
11005;DHT22;5555;59.622;16.556;2023-04-06T09:36:08;6.00;99.90
11005;DHT22;5555;59.622;16.556;2023-04-06T09:38:37;6.10;99.90
11005;DHT22;5555;59.622;16.556;2023-04-06T09:41:03;6.70;99.90
11005;DHT22;5555;59.622;16.556;2023-04-06T09:43:29;7.20;99.90
11005;DHT22;5555;59.622;16.556;2023-04-06T09:45:56;6.90;99.90
11005;DHT22;5555;59.622;16.556;2023-04-06T09:48:24;6.50;99.90
11005;DHT22;5555;59.622;16.556;2023-04-06T09:50:50;6.60;99.90
11005;DHT22;5555;59.622;16.556;2023-04-06T09:53:19;6.30;99.90
11005;DHT22;5555;59.622;16.556;2023-04-06T09:55:46;6.00;99.90
11005;DHT22;5555;59.622;16.556;2023-04-06T09:58:19;6.30;99.90
11005;DHT22;5555;59.622;16.556;2023-04-06T10:01:00;5.60;99.90
11005;DHT22;5555;59.622;16.556;2023-04-06T10:06:31;5.60;99.90
11005;DHT22;5555;59.622;16.556;2023-04-06T10:08:59;5.50;99.90
11005;DHT22;5555;59.622;16.556;2023-04-06T10:11:25;5.90;99.90
11005;DHT22;5555;59.622;16.556;2023-04-06T10:13:51;6.20;99.90
11005;DHT22;5555;59.622;16.556;2023-04-06T10:16:17;6.90;99.90
11005;DHT22;5555;59.622;16.556;2023-04-06T10:18:46;7.10;99.90
11005;DHT22;5555;59.622;16.556;2023-04-06T10:21:16;7.00;99.90
11005;DHT22;5555;59.622;16.556;2023-04-06T10:23:44;6.50;99.90
11005;DHT22;5555;59.622;16.556;2023-04-06T10:26:19;6.70;99.90
11005;DHT22;5555;59.622;16.556;2023-04-06T10:28:47;7.00;99.90
11005;DHT22;5555;59.622;16.556;2023-04-06T10:31:13;6.90;99.90
11005;DHT22;5555;59.622;16.556;2023-04-06T10:33:39;7.30;99.90
11005;DHT22;5555;59.622;16.556;2023-04-06T10:36:14;7.20;99.90
11005;DHT22;5555;59.622;16.556;2023-04-06T10:38:41;7.00;99.90
11005;DHT22;5555;59.622;16.556;2023-04-06T10:41:11;6.70;99.90
11005;DHT22;5555;59.622;16.556;2023-04-06T10:43:38;6.70;99.90
11005;DHT22;5555;59.622;16.556;2023-04-06T10:46:06;6.80;99.90
11005;DHT22;5555;59.622;16.556;2023-04-06T10:48:45;6.80;99.90
11005;DHT22;5555;59.622;16.556;2023-04-06T10:51:18;7.00;99.90
11005;DHT22;5555;59.622;16.556;2023-04-06T10:53:48;7.30;99.90
11005;DHT22;5555;59.622;16.556;2023-04-06T10:56:16;7.20;99.90
11005;DHT22;5555;59.622;16.556;2023-04-06T10:58:50;6.60;99.90
11005;DHT22;5555;59.622;16.556;2023-04-06T11:01:17;6.80;99.90
11005;DHT22;5555;59.622;16.556;2023-04-06T11:03:47;6.20;99.90
11005;DHT22;5555;59.622;16.556;2023-04-06T11:06:24;6.10;99.90
11005;DHT22;5555;59.622;16.556;2023-04-06T11:08:51;6.00;99.90
11005;DHT22;5555;59.622;16.556;2023-04-06T11:11:18;6.20;99.90
11005;DHT22;5555;59.622;16.556;2023-04-06T11:13:56;6.20;99.90
11005;DHT22;5555;59.622;16.556;2023-04-06T11:16:24;6.20;99.90
11005;DHT22;5555;59.622;16.556;2023-04-06T11:19:10;6.50;99.90
11005;DHT22;5555;59.622;16.556;2023-04-06T11:21:48;6.90;99.90
11005;DHT22;5555;59.622;16.556;2023-04-06T11:24:22;7.00;99.90
11005;DHT22;5555;59.622;16.556;2023-04-06T11:26:49;7.00;99.90
11005;DHT22;5555;59.622;16.556;2023-04-06T11:29:24;6.70;99.90
11005;DHT22;5555;59.622;16.556;2023-04-06T11:31:58;6.80;99.90
11005;DHT22;5555;59.622;16.556;2023-04-06T11:34:25;6.90;99.90
11005;DHT22;5555;59.622;16.556;2023-04-06T11:36:56;6.80;99.90
11005;DHT22;5555;59.622;16.556;2023-04-06T11:39:23;6.60;99.90
11005;DHT22;5555;59.622;16.556;2023-04-06T11:41:54;7.00;99.90
11005;DHT22;5555;59.622;16.556;2023-04-06T11:44:42;7.30;99.90
11005;DHT22;5555;59.622;16.556;2023-04-06T11:47:11;7.20;99.90
11005;DHT22;5555;59.622;16.556;2023-04-06T11:49:39;7.20;99.90
11005;DHT22;5555;59.622;16.556;2023-04-06T11:52:22;7.40;99.90
11005;DHT22;5555;59.622;16.556;2023-04-06T11:54:49;7.90;99.90
11005;DHT22;5555;59.622;16.556;2023-04-06T11:57:16;8.30;99.90
11005;DHT22;5555;59.622;16.556;2023-04-06T11:59:42;8.20;99.90
11005;DHT22;5555;59.622;16.556;2023-04-06T12:02:08;8.40;99.90
11005;DHT22;5555;59.622;16.556;2023-04-06T12:04:34;8.00;99.90
11005;DHT22;5555;59.622;16.556;2023-04-06T12:07:00;7.80;99.90
11005;DHT22;5555;59.622;16.556;2023-04-06T12:09:26;8.30;99.90
11005;DHT22;5555;59.622;16.556;2023-04-06T12:11:51;8.10;99.90
11005;DHT22;5555;59.622;16.556;2023-04-06T12:14:17;8.10;99.90
11005;DHT22;5555;59.622;16.556;2023-04-06T12:16:42;8.20;99.90
11005;DHT22;5555;59.622;16.556;2023-04-06T12:19:09;8.10;99.90
11005;DHT22;5555;59.622;16.556;2023-04-06T12:21:35;8.00;99.90
11005;DHT22;5555;59.622;16.556;2023-04-06T12:24:03;7.40;99.90
11005;DHT22;5555;59.622;16.556;2023-04-06T12:26:30;7.50;99.90
11005;DHT22;5555;59.622;16.556;2023-04-06T12:28:55;7.80;99.90
11005;DHT22;5555;59.622;16.556;2023-04-06T12:31:22;7.20;99.90
11005;DHT22;5555;59.622;16.556;2023-04-06T12:33:50;7.00;99.90
11005;DHT22;5555;59.622;16.556;2023-04-06T12:36:17;6.90;99.90
11005;DHT22;5555;59.622;16.556;2023-04-06T12:38:49;7.20;99.90
11005;DHT22;5555;59.622;16.556;2023-04-06T12:41:16;7.20;99.90
11005;DHT22;5555;59.622;16.556;2023-04-06T12:43:43;7.10;99.90
11005;DHT22;5555;59.622;16.556;2023-04-06T12:46:09;7.00;99.90
11005;DHT22;5555;59.622;16.556;2023-04-06T12:48:35;7.30;99.90
11005;DHT22;5555;59.622;16.556;2023-04-06T12:51:03;7.40;99.90
11005;DHT22;5555;59.622;16.556;2023-04-06T12:53:29;7.50;99.90
11005;DHT22;5555;59.622;16.556;2023-04-06T12:55:56;7.60;99.90
11005;DHT22;5555;59.622;16.556;2023-04-06T12:58:23;7.90;99.90
11005;DHT22;5555;59.622;16.556;2023-04-06T13:00:50;7.80;99.90
11005;DHT22;5555;59.622;16.556;2023-04-06T13:03:16;7.50;99.90
11005;DHT22;5555;59.622;16.556;2023-04-06T13:05:51;7.50;99.90
11005;DHT22;5555;59.622;16.556;2023-04-06T13:08:19;7.90;99.90
11005;DHT22;5555;59.622;16.556;2023-04-06T13:10:49;7.20;99.90
11005;DHT22;5555;59.622;16.556;2023-04-06T13:13:16;7.50;99.90
11005;DHT22;5555;59.622;16.556;2023-04-06T13:15:42;7.90;99.90
11005;DHT22;5555;59.622;16.556;2023-04-06T13:18:08;8.30;99.90
11005;DHT22;5555;59.622;16.556;2023-04-06T13:20:34;8.40;99.90
11005;DHT22;5555;59.622;16.556;2023-04-06T13:23:00;9.00;99.90
11005;DHT22;5555;59.622;16.556;2023-04-06T13:25:26;9.40;99.90
11005;DHT22;5555;59.622;16.556;2023-04-06T13:27:51;8.90;99.90
11005;DHT22;5555;59.622;16.556;2023-04-06T13:30:17;8.60;99.90
11005;DHT22;5555;59.622;16.556;2023-04-06T13:32:43;8.30;99.90
11005;DHT22;5555;59.622;16.556;2023-04-06T13:35:08;8.40;99.90
11005;DHT22;5555;59.622;16.556;2023-04-06T13:37:35;7.80;99.90
11005;DHT22;5555;59.622;16.556;2023-04-06T13:40:04;7.90;99.90
11005;DHT22;5555;59.622;16.556;2023-04-06T13:42:30;8.10;99.90
11005;DHT22;5555;59.622;16.556;2023-04-06T13:44:56;7.90;99.90
11005;DHT22;5555;59.622;16.556;2023-04-06T13:47:22;7.90;99.90
11005;DHT22;5555;59.622;16.556;2023-04-06T13:49:49;7.70;99.90
11005;DHT22;5555;59.622;16.556;2023-04-06T13:52:16;7.50;99.90
11005;DHT22;5555;59.622;16.556;2023-04-06T13:54:42;7.50;99.90
11005;DHT22;5555;59.622;16.556;2023-04-06T13:57:07;7.50;99.90
11005;DHT22;5555;59.622;16.556;2023-04-06T13:59:34;6.80;99.90
11005;DHT22;5555;59.622;16.556;2023-04-06T14:02:03;7.00;99.90
11005;DHT22;5555;59.622;16.556;2023-04-06T14:04:29;7.10;99.90
11005;DHT22;5555;59.622;16.556;2023-04-06T14:06:56;6.90;99.90
11005;DHT22;5555;59.622;16.556;2023-04-06T14:09:22;7.10;99.90
11005;DHT22;5555;59.622;16.556;2023-04-06T14:11:48;7.20;99.90
11005;DHT22;5555;59.622;16.556;2023-04-06T14:14:13;7.30;99.90
11005;DHT22;5555;59.622;16.556;2023-04-06T14:16:40;7.40;99.90
11005;DHT22;5555;59.622;16.556;2023-04-06T14:19:06;7.00;99.90
11005;DHT22;5555;59.622;16.556;2023-04-06T14:21:32;7.00;99.90
11005;DHT22;5555;59.622;16.556;2023-04-06T14:23:58;7.00;99.90
11005;DHT22;5555;59.622;16.556;2023-04-06T14:26:23;7.10;99.90
11005;DHT22;5555;59.622;16.556;2023-04-06T14:28:49;7.20;99.90
11005;DHT22;5555;59.622;16.556;2023-04-06T14:31:15;7.40;99.90
11005;DHT22;5555;59.622;16.556;2023-04-06T14:33:42;7.40;99.90
11005;DHT22;5555;59.622;16.556;2023-04-06T14:36:08;7.40;99.90
11005;DHT22;5555;59.622;16.556;2023-04-06T14:38:34;7.60;99.90
11005;DHT22;5555;59.622;16.556;2023-04-06T14:41:01;7.70;99.90
11005;DHT22;5555;59.622;16.556;2023-04-06T14:43:26;7.80;99.90
11005;DHT22;5555;59.622;16.556;2023-04-06T14:45:52;7.60;99.90
11005;DHT22;5555;59.622;16.556;2023-04-06T14:48:18;7.60;99.90
11005;DHT22;5555;59.622;16.556;2023-04-06T14:50:57;7.70;99.90
11005;DHT22;5555;59.622;16.556;2023-04-06T14:53:23;7.80;99.90
11005;DHT22;5555;59.622;16.556;2023-04-06T14:55:49;7.90;99.90
11005;DHT22;5555;59.622;16.556;2023-04-06T14:58:21;7.60;99.90
11005;DHT22;5555;59.622;16.556;2023-04-06T15:00:48;7.50;99.90
11005;DHT22;5555;59.622;16.556;2023-04-06T15:03:14;7.40;99.90
11005;DHT22;5555;59.622;16.556;2023-04-06T15:05:40;7.40;99.90
11005;DHT22;5555;59.622;16.556;2023-04-06T15:08:06;7.20;99.90
11005;DHT22;5555;59.622;16.556;2023-04-06T15:10:34;7.00;99.90
11005;DHT22;5555;59.622;16.556;2023-04-06T15:13:01;6.90;99.90
11005;DHT22;5555;59.622;16.556;2023-04-06T15:15:28;6.80;99.90
11005;DHT22;5555;59.622;16.556;2023-04-06T15:17:53;6.50;99.90
11005;DHT22;5555;59.622;16.556;2023-04-06T15:20:19;6.70;99.90
11005;DHT22;5555;59.622;16.556;2023-04-06T15:22:45;6.70;99.90
11005;DHT22;5555;59.622;16.556;2023-04-06T15:25:11;6.80;99.90
11005;DHT22;5555;59.622;16.556;2023-04-06T15:27:36;6.70;99.90
11005;DHT22;5555;59.622;16.556;2023-04-06T15:30:03;6.50;99.90
11005;DHT22;5555;59.622;16.556;2023-04-06T15:32:28;6.20;99.90
11005;DHT22;5555;59.622;16.556;2023-04-06T15:34:57;5.90;99.90
11005;DHT22;5555;59.622;16.556;2023-04-06T15:37:22;6.00;99.90
11005;DHT22;5555;59.622;16.556;2023-04-06T15:39:48;6.00;99.90
11005;DHT22;5555;59.622;16.556;2023-04-06T15:42:14;6.00;99.90
11005;DHT22;5555;59.622;16.556;2023-04-06T15:44:39;6.10;99.90